Nocona, Texas
Current Conditions -  °F | °C
As of 3:35 PM on Wednesday 26 Nov 2014 (Local Time) from K0F2 Reporting Station
Clear Clear  
Wind Chill: 60°   Ceiling: Unl
Heat Index: 60°   Visibility: 10mi
Dew Point: 35°   Wind: 13mph
Humidity: 40%   Direction: 340°NNW
Pressure: 30.22"   Gusts: 17mph
Location:  33.79°N, 97.73°W
Report Text: K0F2 262135Z AUTO 34011G15KT 10SM CLR 15/02 A3022 RMK AO2 T01540018
Loading
Personal Weather Stations






























Interactive Weather Map New forecast layout! Learn more

10-Day Weather Forecast

Advertisements
Track Severe Weather on mobile